DLH1EL EDSB-EDDC
Flight info
| Callsign | DLH1EL |
|---|---|
| Flight time | 0h 56m |
| Altitude | 23000 |
| Route | GAGSI1Y GAGSI Y712 LBU DCT DKB N869 ANELA Z715 ABKIS |
| Aircraft | A320/M-SDE3FGHIRWY/LB1 |
Departure
| Time | 2026-05-07 21:17 |
|---|---|
| Airport | Karlsruhe Baden-Baden Airport (EDSB) |
Arrival
| Time | 2026-05-07 22:14 |
|---|---|
| Airport | Dresden Airport (EDDC) |
| Time | Latitude | Longitude | Altitude | Speed | Heading |
|---|---|---|---|---|---|
| 2026-05-07 20:52 | 48.78072 | 8.08791 | 415 ft | 0 kts | 97° |
| 2026-05-07 21:15 | 48.78079 | 8.08796 | 408 ft | 1 kts | 24° |
| 2026-05-07 21:15 | 48.78083 | 8.08791 | 410 ft | 0 kts | 342° |
| 2026-05-07 21:16 | 48.78084 | 8.08784 | 407 ft | 2 kts | 300° |
| 2026-05-07 21:16 | 48.78102 | 8.08701 | 415 ft | 14 kts | 289° |
| 2026-05-07 21:16 | 48.78173 | 8.08576 | 415 ft | 15 kts | 351° |
| 2026-05-07 21:16 | 48.78195 | 8.08585 | 412 ft | 0 kts | 27° |
| 2026-05-07 21:17 | 48.78288 | 8.08672 | 409 ft | 56 kts | 31° |
| 2026-05-07 21:17 | 48.78870 | 8.09218 | 413 ft | 136 kts | 32° |
| 2026-05-07 21:17 | 48.79621 | 8.09917 | 1114 ft | 132 kts | 31° |
| 2026-05-07 21:18 | 48.80548 | 8.10704 | 1380 ft | 169 kts | 29° |
| 2026-05-07 21:18 | 48.81639 | 8.11652 | 1809 ft | 191 kts | 31° |
| 2026-05-07 21:18 | 48.82828 | 8.12735 | 2280 ft | 207 kts | 32° |
| 2026-05-07 21:18 | 48.84111 | 8.13920 | 2786 ft | 225 kts | 32° |
| 2026-05-07 21:19 | 48.85494 | 8.15204 | 3392 ft | 238 kts | 32° |
| 2026-05-07 21:19 | 48.86922 | 8.16530 | 4292 ft | 242 kts | 31° |
| 2026-05-07 21:19 | 48.88361 | 8.17885 | 5223 ft | 245 kts | 36° |
| 2026-05-07 21:19 | 48.89415 | 8.19890 | 6116 ft | 247 kts | 72° |
| 2026-05-07 21:20 | 48.89509 | 8.22494 | 6817 ft | 256 kts | 101° |
| 2026-05-07 21:20 | 48.89019 | 8.25103 | 7258 ft | 257 kts | 111° |
| 2026-05-07 21:20 | 48.88133 | 8.27460 | 8096 ft | 259 kts | 133° |
| 2026-05-07 21:20 | 48.86781 | 8.29291 | 8900 ft | 266 kts | 147° |
| 2026-05-07 21:21 | 48.85106 | 8.30653 | 9491 ft | 280 kts | 158° |
| 2026-05-07 21:21 | 48.83300 | 8.31905 | 10188 ft | 290 kts | 156° |
| 2026-05-07 21:21 | 48.81418 | 8.33259 | 10701 ft | 307 kts | 156° |
| 2026-05-07 21:21 | 48.79439 | 8.34706 | 11154 ft | 325 kts | 155° |
| 2026-05-07 21:22 | 48.77350 | 8.36239 | 11579 ft | 342 kts | 155° |
| 2026-05-07 21:22 | 48.75158 | 8.37846 | 11997 ft | 358 kts | 155° |
| 2026-05-07 21:22 | 48.72890 | 8.39502 | 12648 ft | 365 kts | 155° |
| 2026-05-07 21:22 | 48.70591 | 8.41175 | 13401 ft | 369 kts | 155° |
| 2026-05-07 21:23 | 48.68301 | 8.42979 | 14115 ft | 374 kts | 148° |
| 2026-05-07 21:23 | 48.66314 | 8.45546 | 14774 ft | 379 kts | 133° |
| 2026-05-07 21:23 | 48.64829 | 8.48870 | 15415 ft | 385 kts | 116° |
| 2026-05-07 21:23 | 48.63981 | 8.52730 | 16046 ft | 391 kts | 101° |
| 2026-05-07 21:24 | 48.63854 | 8.56789 | 16667 ft | 396 kts | 84° |
| 2026-05-07 21:24 | 48.64215 | 8.60995 | 17264 ft | 401 kts | 82° |
| 2026-05-07 21:24 | 48.64601 | 8.65193 | 17876 ft | 405 kts | 80° |
| 2026-05-07 21:24 | 48.65340 | 8.69315 | 18485 ft | 409 kts | 67° |
| 2026-05-07 21:25 | 48.66569 | 8.73216 | 19015 ft | 413 kts | 63° |
| 2026-05-07 21:25 | 48.67836 | 8.77133 | 19584 ft | 416 kts | 63° |
| 2026-05-07 21:25 | 48.69096 | 8.81025 | 19961 ft | 418 kts | 63° |
| 2026-05-07 21:25 | 48.70378 | 8.84983 | 20065 ft | 418 kts | 63° |
| 2026-05-07 21:26 | 48.71657 | 8.88925 | 20088 ft | 418 kts | 63° |
| 2026-05-07 21:26 | 48.72938 | 8.92874 | 20085 ft | 418 kts | 63° |
| 2026-05-07 21:26 | 48.74221 | 8.96824 | 20086 ft | 418 kts | 63° |
| 2026-05-07 21:26 | 48.75503 | 9.00783 | 20085 ft | 418 kts | 63° |
| 2026-05-07 21:27 | 48.76784 | 9.04750 | 20085 ft | 418 kts | 63° |
| 2026-05-07 21:27 | 48.78061 | 9.08713 | 20083 ft | 418 kts | 63° |
| 2026-05-07 21:27 | 48.79334 | 9.12674 | 20085 ft | 418 kts | 63° |
| 2026-05-07 21:27 | 48.80610 | 9.16652 | 20085 ft | 419 kts | 63° |
| 2026-05-07 21:28 | 48.81882 | 9.20623 | 20084 ft | 419 kts | 63° |
| 2026-05-07 21:28 | 48.83155 | 9.24598 | 20083 ft | 419 kts | 63° |
| 2026-05-07 21:28 | 48.84427 | 9.28577 | 20086 ft | 419 kts | 63° |
| 2026-05-07 21:28 | 48.85699 | 9.32566 | 20084 ft | 419 kts | 63° |
| 2026-05-07 21:29 | 48.86966 | 9.36544 | 20084 ft | 419 kts | 63° |
| 2026-05-07 21:29 | 48.88218 | 9.40479 | 20086 ft | 419 kts | 63° |
| 2026-05-07 21:29 | 48.89486 | 9.44469 | 20086 ft | 419 kts | 63° |
| 2026-05-07 21:29 | 48.90751 | 9.48455 | 20087 ft | 419 kts | 63° |
| 2026-05-07 21:30 | 48.92015 | 9.52455 | 20098 ft | 419 kts | 63° |
| 2026-05-07 21:30 | 48.93278 | 9.56457 | 20100 ft | 420 kts | 63° |
| 2026-05-07 21:30 | 48.94541 | 9.60460 | 20103 ft | 420 kts | 63° |
| 2026-05-07 21:30 | 48.95804 | 9.64460 | 20103 ft | 419 kts | 63° |
| 2026-05-07 21:31 | 48.97063 | 9.68460 | 20104 ft | 419 kts | 63° |
| 2026-05-07 21:31 | 48.98326 | 9.72468 | 20107 ft | 420 kts | 63° |
| 2026-05-07 21:31 | 48.99583 | 9.76472 | 20109 ft | 419 kts | 63° |
| 2026-05-07 21:31 | 49.00839 | 9.80483 | 20111 ft | 420 kts | 64° |
| 2026-05-07 21:32 | 49.02092 | 9.84500 | 20111 ft | 420 kts | 64° |
| 2026-05-07 21:32 | 49.03346 | 9.88520 | 20110 ft | 420 kts | 63° |
| 2026-05-07 21:32 | 49.04598 | 9.92530 | 20111 ft | 420 kts | 63° |
| 2026-05-07 21:32 | 49.05853 | 9.96550 | 20105 ft | 419 kts | 63° |
| 2026-05-07 21:33 | 49.07105 | 10.00572 | 20102 ft | 420 kts | 63° |
| 2026-05-07 21:33 | 49.08352 | 10.04596 | 20102 ft | 420 kts | 64° |
| 2026-05-07 21:33 | 49.09594 | 10.08620 | 20099 ft | 420 kts | 64° |
| 2026-05-07 21:33 | 49.10838 | 10.12652 | 20112 ft | 420 kts | 64° |
| 2026-05-07 21:34 | 49.12079 | 10.16680 | 20111 ft | 420 kts | 64° |
| 2026-05-07 21:34 | 49.13341 | 10.20706 | 20117 ft | 419 kts | 60° |
| 2026-05-07 21:34 | 49.14901 | 10.24454 | 20120 ft | 418 kts | 51° |
| 2026-05-07 21:34 | 49.16821 | 10.27763 | 20111 ft | 416 kts | 43° |
| 2026-05-07 21:35 | 49.18857 | 10.30894 | 20113 ft | 415 kts | 43° |
| 2026-05-07 21:35 | 49.20884 | 10.34037 | 20113 ft | 415 kts | 44° |
| 2026-05-07 21:35 | 49.22903 | 10.37184 | 20113 ft | 414 kts | 44° |
| 2026-05-07 21:35 | 49.24899 | 10.40291 | 20116 ft | 414 kts | 43° |
| 2026-05-07 21:36 | 49.26929 | 10.43415 | 20125 ft | 414 kts | 43° |
| 2026-05-07 21:36 | 49.28964 | 10.46517 | 20133 ft | 413 kts | 43° |
| 2026-05-07 21:36 | 49.31004 | 10.49622 | 20131 ft | 413 kts | 43° |
| 2026-05-07 21:36 | 49.33037 | 10.52721 | 20134 ft | 413 kts | 43° |
| 2026-05-07 21:37 | 49.35072 | 10.55829 | 20124 ft | 412 kts | 43° |
| 2026-05-07 21:37 | 49.37080 | 10.58971 | 20131 ft | 413 kts | 44° |
| 2026-05-07 21:37 | 49.39057 | 10.62161 | 20126 ft | 413 kts | 45° |
| 2026-05-07 21:37 | 49.41019 | 10.65378 | 20112 ft | 413 kts | 45° |
| 2026-05-07 21:38 | 49.42318 | 10.67514 | 20112 ft | 412 kts | 45° |
| 2026-05-07 21:38 | 49.44294 | 10.70703 | 20115 ft | 412 kts | 44° |
| 2026-05-07 21:38 | 49.46290 | 10.73861 | 20113 ft | 412 kts | 44° |
| 2026-05-07 21:38 | 49.48292 | 10.77001 | 20105 ft | 412 kts | 44° |
| 2026-05-07 21:39 | 49.50299 | 10.80139 | 20110 ft | 411 kts | 44° |
| 2026-05-07 21:39 | 49.52306 | 10.83286 | 20112 ft | 411 kts | 44° |
| 2026-05-07 21:39 | 49.54305 | 10.86431 | 20111 ft | 411 kts | 44° |
| 2026-05-07 21:39 | 49.56297 | 10.89582 | 20110 ft | 411 kts | 44° |
| 2026-05-07 21:40 | 49.58956 | 10.93808 | 20112 ft | 410 kts | 44° |
| 2026-05-07 21:40 | 49.60271 | 10.95900 | 20104 ft | 410 kts | 44° |
| 2026-05-07 21:40 | 49.62256 | 10.99059 | 20108 ft | 410 kts | 44° |
| 2026-05-07 21:40 | 49.64241 | 11.02224 | 20113 ft | 410 kts | 44° |
| 2026-05-07 21:41 | 49.66224 | 11.05391 | 20105 ft | 410 kts | 44° |
| 2026-05-07 21:41 | 49.68204 | 11.08552 | 20099 ft | 410 kts | 44° |
| 2026-05-07 21:41 | 49.70186 | 11.11718 | 20101 ft | 410 kts | 44° |
| 2026-05-07 21:41 | 49.72163 | 11.14884 | 20102 ft | 410 kts | 44° |
| 2026-05-07 21:42 | 49.74142 | 11.18058 | 20101 ft | 410 kts | 45° |
| 2026-05-07 21:42 | 49.76121 | 11.21226 | 20096 ft | 409 kts | 43° |
| 2026-05-07 21:42 | 49.78285 | 11.24058 | 20092 ft | 407 kts | 34° |
| 2026-05-07 21:42 | 49.80549 | 11.26600 | 20092 ft | 407 kts | 34° |
| 2026-05-07 21:43 | 49.82840 | 11.29177 | 20095 ft | 407 kts | 34° |
| 2026-05-07 21:43 | 49.85130 | 11.31759 | 20093 ft | 407 kts | 34° |
| 2026-05-07 21:43 | 49.87419 | 11.34354 | 20091 ft | 407 kts | 34° |
| 2026-05-07 21:43 | 49.89704 | 11.36951 | 20084 ft | 407 kts | 34° |
| 2026-05-07 21:44 | 49.91990 | 11.39549 | 20095 ft | 407 kts | 35° |
| 2026-05-07 21:44 | 49.94142 | 11.42409 | 20092 ft | 409 kts | 44° |
| 2026-05-07 21:44 | 49.96146 | 11.45548 | 20089 ft | 409 kts | 44° |
| 2026-05-07 21:44 | 49.98146 | 11.48687 | 20092 ft | 409 kts | 44° |
| 2026-05-07 21:45 | 50.00149 | 11.51827 | 20090 ft | 409 kts | 44° |
| 2026-05-07 21:45 | 50.02151 | 11.54971 | 20091 ft | 409 kts | 44° |
| 2026-05-07 21:45 | 50.04146 | 11.58113 | 20088 ft | 409 kts | 44° |
| 2026-05-07 21:45 | 50.06144 | 11.61266 | 20087 ft | 409 kts | 44° |
| 2026-05-07 21:46 | 50.08137 | 11.64420 | 20086 ft | 409 kts | 44° |
| 2026-05-07 21:46 | 50.10103 | 11.67617 | 20086 ft | 408 kts | 45° |
| 2026-05-07 21:46 | 50.12043 | 11.70841 | 20088 ft | 408 kts | 46° |
| 2026-05-07 21:46 | 50.13976 | 11.74088 | 20084 ft | 408 kts | 46° |
| 2026-05-07 21:47 | 50.15905 | 11.77335 | 20088 ft | 408 kts | 46° |
| 2026-05-07 21:47 | 50.17834 | 11.80588 | 20084 ft | 408 kts | 47° |
| 2026-05-07 21:47 | 50.19554 | 11.84108 | 20079 ft | 410 kts | 56° |
| 2026-05-07 21:47 | 50.21038 | 11.87903 | 20086 ft | 410 kts | 57° |
| 2026-05-07 21:48 | 50.22523 | 11.91695 | 20085 ft | 410 kts | 57° |
| 2026-05-07 21:48 | 50.24019 | 11.95488 | 20084 ft | 410 kts | 57° |
| 2026-05-07 21:48 | 50.25515 | 11.99277 | 20083 ft | 410 kts | 57° |
| 2026-05-07 21:48 | 50.27019 | 12.03057 | 20085 ft | 409 kts | 56° |
| 2026-05-07 21:49 | 50.28586 | 12.06774 | 20088 ft | 409 kts | 54° |
| 2026-05-07 21:49 | 50.30196 | 12.10429 | 20089 ft | 409 kts | 53° |
| 2026-05-07 21:49 | 50.31829 | 12.14066 | 20090 ft | 409 kts | 53° |
| 2026-05-07 21:49 | 50.33463 | 12.17704 | 20088 ft | 408 kts | 53° |
| 2026-05-07 21:50 | 50.34978 | 12.21391 | 20091 ft | 409 kts | 60° |
| 2026-05-07 21:50 | 50.36340 | 12.25373 | 20092 ft | 409 kts | 60° |
| 2026-05-07 21:50 | 50.37671 | 12.29320 | 20093 ft | 409 kts | 60° |
| 2026-05-07 21:50 | 50.38993 | 12.33273 | 20093 ft | 409 kts | 60° |
| 2026-05-07 21:51 | 50.40292 | 12.37164 | 20094 ft | 409 kts | 60° |
| 2026-05-07 21:51 | 50.41611 | 12.41110 | 20093 ft | 409 kts | 60° |
| 2026-05-07 21:51 | 50.42932 | 12.45064 | 20099 ft | 408 kts | 60° |
| 2026-05-07 21:51 | 50.44249 | 12.49007 | 20097 ft | 408 kts | 60° |
| 2026-05-07 21:52 | 50.45565 | 12.52952 | 20100 ft | 408 kts | 60° |
| 2026-05-07 21:52 | 50.46878 | 12.56895 | 20096 ft | 407 kts | 60° |
| 2026-05-07 21:52 | 50.48188 | 12.60835 | 20099 ft | 407 kts | 60° |
| 2026-05-07 21:52 | 50.49497 | 12.64775 | 20094 ft | 407 kts | 60° |
| 2026-05-07 21:53 | 50.50804 | 12.68717 | 20095 ft | 407 kts | 60° |
| 2026-05-07 21:53 | 50.52110 | 12.72663 | 20091 ft | 406 kts | 60° |
| 2026-05-07 21:53 | 50.53410 | 12.76599 | 20094 ft | 406 kts | 60° |
| 2026-05-07 21:53 | 50.54710 | 12.80541 | 20096 ft | 406 kts | 60° |
| 2026-05-07 21:54 | 50.56008 | 12.84480 | 20097 ft | 406 kts | 60° |
| 2026-05-07 21:54 | 50.57302 | 12.88417 | 20096 ft | 405 kts | 60° |
| 2026-05-07 21:54 | 50.58594 | 12.92356 | 20099 ft | 405 kts | 60° |
| 2026-05-07 21:54 | 50.59885 | 12.96298 | 20100 ft | 405 kts | 60° |
| 2026-05-07 21:55 | 50.61259 | 13.00157 | 20096 ft | 403 kts | 53° |
| 2026-05-07 21:55 | 50.63004 | 13.03576 | 20097 ft | 400 kts | 43° |
| 2026-05-07 21:55 | 50.65091 | 13.06442 | 20096 ft | 397 kts | 33° |
| 2026-05-07 21:55 | 50.67408 | 13.08663 | 20093 ft | 395 kts | 24° |
| 2026-05-07 21:56 | 50.69957 | 13.10421 | 20098 ft | 394 kts | 21° |
| 2026-05-07 21:56 | 50.72446 | 13.12092 | 20100 ft | 394 kts | 21° |
| 2026-05-07 21:56 | 50.74972 | 13.13799 | 20098 ft | 394 kts | 21° |
| 2026-05-07 21:56 | 50.77492 | 13.15510 | 20078 ft | 395 kts | 21° |
| 2026-05-07 21:57 | 50.80031 | 13.17236 | 19358 ft | 400 kts | 22° |
| 2026-05-07 21:57 | 50.82606 | 13.18986 | 18478 ft | 405 kts | 22° |
| 2026-05-07 21:57 | 50.85202 | 13.20752 | 17679 ft | 404 kts | 22° |
| 2026-05-07 21:57 | 50.87776 | 13.22506 | 16977 ft | 402 kts | 22° |
| 2026-05-07 21:58 | 50.90390 | 13.24007 | 16344 ft | 397 kts | 11° |
| 2026-05-07 21:58 | 50.93116 | 13.24214 | 15715 ft | 391 kts | 351° |
| 2026-05-07 21:58 | 50.95685 | 13.22995 | 15080 ft | 386 kts | 332° |
| 2026-05-07 21:58 | 50.97828 | 13.20491 | 14456 ft | 382 kts | 312° |
| 2026-05-07 21:59 | 50.99282 | 13.17025 | 13829 ft | 377 kts | 292° |
| 2026-05-07 21:59 | 51.00085 | 13.13076 | 13130 ft | 375 kts | 285° |
| 2026-05-07 21:59 | 51.00566 | 13.09047 | 12443 ft | 371 kts | 271° |
| 2026-05-07 21:59 | 51.00189 | 13.05041 | 11784 ft | 367 kts | 250° |
| 2026-05-07 22:00 | 50.98963 | 13.01557 | 11109 ft | 364 kts | 230° |
| 2026-05-07 22:00 | 50.97060 | 12.99023 | 10469 ft | 361 kts | 208° |
| 2026-05-07 22:00 | 50.94732 | 12.97849 | 10266 ft | 345 kts | 186° |
| 2026-05-07 22:00 | 50.92391 | 12.97997 | 10137 ft | 329 kts | 175° |
| 2026-05-07 22:01 | 50.90178 | 12.97850 | 10017 ft | 311 kts | 195° |
| 2026-05-07 22:01 | 50.88285 | 12.96426 | 9896 ft | 296 kts | 214° |
| 2026-05-07 22:01 | 50.86576 | 12.94747 | 9774 ft | 283 kts | 202° |
| 2026-05-07 22:01 | 50.84692 | 12.94189 | 9630 ft | 272 kts | 182° |
| 2026-05-07 22:02 | 50.82839 | 12.94178 | 9489 ft | 261 kts | 180° |
| 2026-05-07 22:02 | 50.81101 | 12.94661 | 9347 ft | 252 kts | 159° |
| 2026-05-07 22:02 | 50.79642 | 12.96148 | 9025 ft | 250 kts | 135° |
| 2026-05-07 22:02 | 50.78705 | 12.98440 | 8629 ft | 249 kts | 110° |
| 2026-05-07 22:03 | 50.78442 | 13.01103 | 8029 ft | 245 kts | 84° |
| 2026-05-07 22:03 | 50.78867 | 13.03605 | 7712 ft | 230 kts | 63° |
| 2026-05-07 22:03 | 50.79696 | 13.05725 | 7257 ft | 226 kts | 56° |
| 2026-05-07 22:03 | 50.80553 | 13.07810 | 6757 ft | 225 kts | 56° |
| 2026-05-07 22:04 | 50.81399 | 13.09879 | 6264 ft | 223 kts | 56° |
| 2026-05-07 22:04 | 50.82235 | 13.11931 | 5769 ft | 220 kts | 56° |
| 2026-05-07 22:04 | 50.83044 | 13.13927 | 5256 ft | 218 kts | 56° |
| 2026-05-07 22:04 | 50.83867 | 13.15957 | 4764 ft | 215 kts | 56° |
| 2026-05-07 22:05 | 50.84656 | 13.17905 | 4282 ft | 212 kts | 56° |
| 2026-05-07 22:05 | 50.85446 | 13.19855 | 4034 ft | 211 kts | 56° |
| 2026-05-07 22:05 | 50.86242 | 13.21820 | 4030 ft | 212 kts | 56° |
| 2026-05-07 22:05 | 50.87038 | 13.23784 | 4029 ft | 212 kts | 56° |
| 2026-05-07 22:06 | 50.87815 | 13.25770 | 4031 ft | 212 kts | 58° |
| 2026-05-07 22:06 | 50.88570 | 13.27771 | 4031 ft | 212 kts | 58° |
| 2026-05-07 22:06 | 50.89320 | 13.29791 | 4033 ft | 212 kts | 58° |
| 2026-05-07 22:06 | 50.90066 | 13.31804 | 4026 ft | 212 kts | 58° |
| 2026-05-07 22:07 | 50.90813 | 13.33815 | 4030 ft | 212 kts | 58° |
| 2026-05-07 22:07 | 50.91561 | 13.35824 | 4035 ft | 212 kts | 58° |
| 2026-05-07 22:07 | 50.92310 | 13.37837 | 4031 ft | 212 kts | 58° |
| 2026-05-07 22:07 | 50.93059 | 13.39850 | 4031 ft | 212 kts | 58° |
| 2026-05-07 22:08 | 50.93805 | 13.41862 | 4027 ft | 211 kts | 59° |
| 2026-05-07 22:08 | 50.94551 | 13.43875 | 4033 ft | 212 kts | 58° |
| 2026-05-07 22:08 | 50.95298 | 13.45885 | 4031 ft | 212 kts | 58° |
| 2026-05-07 22:08 | 50.96036 | 13.47877 | 4030 ft | 212 kts | 59° |
| 2026-05-07 22:09 | 50.96792 | 13.49920 | 4031 ft | 212 kts | 58° |
| 2026-05-07 22:09 | 50.97528 | 13.51910 | 4041 ft | 212 kts | 59° |
| 2026-05-07 22:09 | 50.98271 | 13.53923 | 4034 ft | 212 kts | 58° |
| 2026-05-07 22:09 | 50.99014 | 13.55937 | 4034 ft | 211 kts | 59° |
| 2026-05-07 22:10 | 50.99780 | 13.57925 | 4029 ft | 211 kts | 51° |
| 2026-05-07 22:10 | 51.00820 | 13.59554 | 3876 ft | 210 kts | 39° |
| 2026-05-07 22:10 | 51.01902 | 13.61007 | 3627 ft | 196 kts | 39° |
| 2026-05-07 22:10 | 51.02905 | 13.62364 | 3378 ft | 181 kts | 39° |
| 2026-05-07 22:11 | 51.03817 | 13.63609 | 3142 ft | 166 kts | 40° |
| 2026-05-07 22:11 | 51.04686 | 13.64796 | 2922 ft | 165 kts | 40° |
| 2026-05-07 22:11 | 51.05551 | 13.65980 | 2698 ft | 163 kts | 40° |
| 2026-05-07 22:11 | 51.06380 | 13.67114 | 2483 ft | 152 kts | 40° |
| 2026-05-07 22:12 | 51.07179 | 13.68212 | 2279 ft | 151 kts | 40° |
| 2026-05-07 22:12 | 51.07967 | 13.69303 | 2065 ft | 150 kts | 40° |
| 2026-05-07 22:12 | 51.08744 | 13.70402 | 1913 ft | 149 kts | 41° |
| 2026-05-07 22:12 | 51.09518 | 13.71489 | 1676 ft | 148 kts | 39° |
| 2026-05-07 22:13 | 51.10307 | 13.72538 | 1377 ft | 148 kts | 39° |
| 2026-05-07 22:13 | 51.11012 | 13.73490 | 1129 ft | 145 kts | 38° |
| 2026-05-07 22:13 | 51.11765 | 13.74580 | 1162 ft | 146 kts | 41° |
| 2026-05-07 22:13 | 51.12534 | 13.75608 | 828 ft | 144 kts | 38° |
| 2026-05-07 22:14 | 51.13253 | 13.76557 | 741 ft | 112 kts | 41° |
| 2026-05-07 22:14 | 51.13629 | 13.77097 | 728 ft | 59 kts | 76° |
| 2026-05-07 22:14 | 51.13750 | 13.77601 | 719 ft | 38 kts | 30° |
| 2026-05-07 22:14 | 51.13807 | 13.77587 | 720 ft | 1 kts | 256° |
| 2026-05-07 22:15 | 51.13597 | 13.77400 | 724 ft | 80 kts | 200° |
| 2026-05-07 22:15 | 51.13026 | 13.77293 | 852 ft | 0 kts | 154° |
| 2026-05-07 22:15 | 51.12841 | 13.76740 | 747 ft | 0 kts | 164° |